Time;durP1;ratioP1;P1;durP2;ratioP2;P2;SDS_P1;SDS_P2;PMS_P1;PMS_P2;Temp;Humidity;BMP_temperature;BMP_pressure;BME280_temperature;BME280_humidity;BME280_pressure;Samples;Min_cycle;Max_cycle;Signal;HPM_P1;HPM_P2
2021/04/04 10:15:48;;;;;;;23.85;8.00;;;;;;;22.41;100.00;100516.59;1782526;77;70952;-41
2021/04/04 10:18:19;;;;;;;25.75;8.75;;;;;;;22.49;100.00;100516.25;1718867;79;86928;-36
2021/04/04 10:20:54;;;;;;;26.62;10.82;;;;;;;22.64;100.00;100516.59;1721903;79;87489;-37
2021/04/04 10:22:07;;;;;;;1999.90;999.90;;;;;;;23.40;100.00;100504.23;309113;82;148546;-48
2021/04/04 10:22:50;;;;;;;1991.90;932.55;;;;;;;23.39;100.00;100498.95;317348;85;187611;-39
2021/04/04 10:23:33;;;;;;;876.17;564.85;;;;;;;23.44;100.00;100499.05;321985;85;91117;-37
2021/04/04 10:24:42;;;;;;;125.07;77.08;;;;;;;23.58;100.00;100495.47;347528;77;427497;-37
2021/04/04 10:25:17;;;;;;;54.98;37.17;;;;;;;23.56;100.00;100499.02;339919;83;40184;-36
2021/04/04 10:26:08;;;;;;;38.70;23.00;;;;;;;23.57;100.00;100498.78;333587;85;49479;-39
2021/04/04 10:26:44;;;;;;;31.70;16.97;;;;;;;23.59;100.00;100496.61;333778;87;21136;-41
2021/04/04 10:27:28;;;;;;;21.02;12.43;;;;;;;23.94;100.00;100492.02;341335;85;57323;-40
2021/04/04 10:28:08;;;;;;;23.42;11.70;;;;;;;23.99;99.74;100492.11;341323;85;21575;-31
2021/04/04 10:29:37;;;;;;;23.10;10.32;;;;;;;23.85;100.00;100491.06;360188;77;79318;-32
2021/04/04 10:30:17;;;;;;;20.68;11.22;;;;;;;23.72;100.00;100497.39;356959;80;40321;-30
2021/04/04 10:30:56;;;;;;;27.25;10.88;;;;;;;23.63;100.00;100503.30;341564;83;72637;-31
2021/04/04 10:31:47;;;;;;;22.90;10.90;;;;;;;23.56;100.00;100505.37;348089;84;21157;-31
2021/04/04 10:32:27;;;;;;;20.05;10.10;;;;;;;23.47;100.00;100500.78;346125;84;21120;-31
2021/04/04 10:33:24;;;;;;;22.82;10.28;;;;;;;23.40;100.00;100503.40;352144;83;21172;-31
2021/04/04 10:34:04;;;;;;;21.27;9.95;;;;;;;23.35;99.83;100497.22;349280;83;21150;-31
2021/04/04 10:34:45;;;;;;;21.20;9.40;;;;;;;23.28;100.00;100495.14;342809;84;21191;-32
2021/04/04 10:35:39;;;;;;;18.65;9.60;;;;;;;23.22;100.00;100496.97;342770;84;21179;-32
2021/04/04 10:36:16;;;;;;;21.77;9.58;;;;;;;23.18;99.11;100494.92;350238;83;27284;-32
2021/04/04 10:37:04;;;;;;;21.30;10.18;;;;;;;23.11;100.00;100494.53;348663;83;21108;-31
2021/04/04 10:37:36;;;;;;;25.50;10.08;;;;;;;23.06;100.00;100495.80;351646;83;21199;-36
2021/04/04 10:38:16;;;;;;;24.57;10.65;;;;;;;24.03;100.00;100519.55;352500;83;21134;-36
2021/04/04 10:38:48;;;;;;;22.82;8.85;;;;;;;23.44;100.00;100510.95;358091;82;21265;-36
2021/04/04 10:39:21;;;;;;;20.48;8.88;;;;;;;23.15;100.00;100498.20;350657;83;21262;-36
2021/04/04 10:40:01;;;;;;;21.42;8.93;;;;;;;23.08;100.00;100493.63;349694;82;31084;-39
2021/04/04 10:40:52;;;;;;;20.15;9.68;;;;;;;23.08;100.00;100492.25;349458;82;21562;-35
2021/04/04 10:41:35;;;;;;;28.83;12.15;;;;;;;23.07;100.00;100486.98;335153;83;63385;-38
2021/04/04 10:42:14;;;;;;;33.47;11.83;;;;;;;46.52;24.00;100503.59;329160;84;72408;-41
2021/04/04 10:42:52;;;;;;;27.55;10.68;;;;;;;60.00;11.18;100587.69;345430;80;207320;-43
2021/04/04 10:43:41;;;;;;;55.44;13.24;;;;;;;49.26;13.67;100707.20;340762;80;420971;-40
2021/04/04 10:44:23;;;;;;;22.00;9.43;;;;;;;28.96;56.15;100510.44;355176;81;39828;-43
2021/04/04 10:45:14;;;;;;;19.55;7.47;;;;;;;27.82;71.47;100511.55;350524;81;43220;-36
2021/04/04 10:46:04;;;;;;;18.23;7.30;;;;;;;28.66;69.83;100508.56;357514;79;42742;-37
2021/04/04 10:46:36;;;;;;;15.78;7.00;;;;;;;29.10;65.17;100505.11;356502;81;21085;-39
2021/04/04 10:47:23;;;;;;;16.35;7.42;;;;;;;29.15;63.57;100503.73;353125;80;58135;-37
2021/04/04 10:48:06;;;;;;;14.53;7.20;;;;;;;29.09;63.58;100504.00;346974;83;168443;-37
2021/04/04 10:48:44;;;;;;;16.02;6.97;;;;;;;28.91;64.02;100504.87;347858;83;40099;-37
2021/04/04 10:49:16;;;;;;;19.45;8.33;;;;;;;28.71;65.05;100507.73;345290;84;21180;-37
2021/04/04 10:49:49;;;;;;;20.83;8.03;;;;;;;28.50;66.13;100506.89;345752;83;243671;-37
2021/04/04 10:50:23;;;;;;;23.75;8.93;;;;;;;28.31;67.75;100502.44;352248;83;21147;-37
2021/04/04 10:50:57;;;;;;;19.50;8.63;;;;;;;28.13;69.40;100503.27;354717;83;21527;-37
2021/04/04 10:51:30;;;;;;;22.15;8.88;;;;;;;27.95;70.87;100507.42;354199;83;21185;-37
2021/04/04 10:52:04;;;;;;;24.87;10.38;;;;;;;27.78;71.89;100502.10;353591;82;27307;-37
2021/04/04 10:52:39;;;;;;;24.35;9.88;;;;;;;27.62;73.52;100504.54;352712;83;21135;-37
2021/04/04 10:53:11;;;;;;;24.75;9.83;;;;;;;27.48;75.30;100502.00;351385;82;21166;-39
2021/04/04 10:53:44;;;;;;;25.57;10.28;;;;;;;27.31;76.75;100500.84;352492;83;21125;-38
2021/04/04 10:54:16;;;;;;;28.12;10.03;;;;;;;27.16;77.85;100509.36;349793;82;63570;-40
2021/04/04 10:54:49;;;;;;;20.12;7.83;;;;;;;27.02;78.60;100504.84;351011;82;21237;-40
2021/04/04 10:55:23;;;;;;;25.48;7.35;;;;;;;26.89;78.10;100508.92;357223;82;21545;-40
2021/04/04 10:55:56;;;;;;;16.87;6.67;;;;;;;26.78;75.78;100503.59;350238;83;21129;-39
2021/04/04 10:56:31;;;;;;;15.32;7.22;;;;;;;26.64;73.97;100508.77;356646;81;21129;-40
2021/04/04 10:57:07;;;;;;;18.48;7.17;;;;;;;26.52;72.75;100511.70;356482;82;21135;-41
2021/04/04 10:57:39;;;;;;;20.32;8.50;;;;;;;26.40;72.14;100503.59;345007;83;21156;-41
2021/04/04 10:58:28;;;;;;;25.37;9.00;;;;;;;26.28;72.63;100502.93;354166;82;21162;-41
2021/04/04 10:59:00;;;;;;;27.70;9.65;;;;;;;26.17;73.14;100504.78;352435;83;21205;-40
2021/04/04 10:59:32;;;;;;;26.97;11.38;;;;;;;26.02;74.06;100502.69;352529;82;21072;-41
2021/04/04 11:00:08;;;;;;;30.20;12.07;;;;;;;25.92;74.96;100505.33;355617;82;21083;-41
2021/04/04 11:00:43;;;;;;;31.97;11.25;;;;;;;25.82;75.66;100501.09;354286;82;21576;-40
2021/04/04 11:01:15;;;;;;;32.40;11.55;;;;;;;25.70;76.62;100500.67;357414;80;21136;-40
2021/04/04 11:01:48;;;;;;;34.33;12.13;;;;;;;25.60;77.99;100497.80;360726;80;21111;-41
2021/04/04 11:02:23;;;;;;;31.48;12.25;;;;;;;25.52;78.91;100501.87;359539;82;21128;-40
2021/04/04 11:02:56;;;;;;;29.50;11.97;;;;;;;25.42;80.41;100497.59;356713;82;21143;-40
2021/04/04 11:03:28;;;;;;;32.03;12.60;;;;;;;25.33;81.68;100497.77;358743;80;21183;-40
2021/04/04 11:04:01;;;;;;;29.40;11.55;;;;;;;25.24;82.47;100494.58;356810;82;69277;-40
2021/04/04 11:04:33;;;;;;;30.10;12.15;;;;;;;25.16;83.37;100504.18;344174;81;70673;-40
2021/04/04 11:05:08;;;;;;;27.27;11.78;;;;;;;25.08;84.04;100496.31;351635;82;21120;-40
2021/04/04 11:05:40;;;;;;;29.67;11.73;;;;;;;25.00;84.59;100493.98;353147;83;21201;-40
2021/04/04 11:06:13;;;;;;;27.65;10.98;;;;;;;24.92;84.92;100498.03;353250;83;21129;-41
2021/04/04 11:06:45;;;;;;;25.10;10.72;;;;;;;24.85;85.18;100497.94;347116;84;21200;-40
2021/04/04 11:07:19;;;;;;;25.85;10.82;;;;;;;24.78;85.36;100496.73;342139;84;21181;-43
2021/04/04 11:07:52;;;;;;;22.17;10.00;;;;;;;24.71;85.62;100501.61;341600;84;21172;-41
2021/04/04 11:08:24;;;;;;;24.85;10.35;;;;;;;24.63;85.89;100500.12;341382;84;21166;-41
2021/04/04 11:08:56;;;;;;;32.85;10.90;;;;;;;24.56;86.14;100500.29;340233;86;21293;-40
2021/04/04 11:09:29;;;;;;;24.57;11.12;;;;;;;24.50;86.49;100500.42;342265;84;21262;-40
2021/04/04 11:10:05;;;;;;;26.65;10.35;;;;;;;24.44;86.89;100496.75;332648;87;21140;-40
2021/04/04 11:10:37;;;;;;;22.85;10.30;;;;;;;24.37;87.34;100500.23;342510;84;21351;-41
2021/04/04 11:11:14;;;;;;;23.75;9.23;;;;;;;24.30;87.87;100496.24;334078;86;21150;-41
2021/04/04 11:11:46;;;;;;;23.32;9.43;;;;;;;24.24;88.35;100493.09;343595;84;21114;-41
2021/04/04 11:12:18;;;;;;;25.35;9.28;;;;;;;24.19;88.96;100494.41;348961;84;21131;-41
2021/04/04 11:12:51;;;;;;;23.95;9.55;;;;;;;24.13;89.42;100498.16;343571;85;21177;-41
2021/04/04 11:13:23;;;;;;;21.95;9.65;;;;;;;24.06;90.02;100497.79;344354;84;21196;-40
2021/04/04 11:13:56;;;;;;;22.65;9.08;;;;;;;24.01;90.65;100499.08;348624;84;21175;-41
2021/04/04 11:14:30;;;;;;;25.12;9.30;;;;;;;23.96;91.33;100500.92;350289;82;21821;-45
2021/04/04 11:15:05;;;;;;;20.32;8.35;;;;;;;23.90;92.04;100494.44;350565;82;21130;-39
2021/04/04 11:15:39;;;;;;;21.33;8.40;;;;;;;23.86;92.71;100495.48;345956;85;21213;-41
2021/04/04 11:16:11;;;;;;;19.75;8.65;;;;;;;23.81;93.43;100499.52;352397;83;21120;-41
2021/04/04 11:16:45;;;;;;;23.65;8.98;;;;;;;23.77;94.23;100493.35;344445;85;21165;-41
2021/04/04 11:17:20;;;;;;;18.23;8.10;;;;;;;23.72;95.00;100491.32;343976;83;41022;-41
2021/04/04 11:17:54;;;;;;;22.05;8.38;;;;;;;23.67;96.16;100497.61;357870;82;21100;-41
2021/04/04 11:18:41;;;;;;;20.05;8.33;;;;;;;23.63;97.08;100495.02;360910;80;21202;-40
2021/04/04 11:19:13;;;;;;;18.02;7.40;;;;;;;23.59;97.78;100493.84;359516;82;21209;-40
2021/04/04 11:19:48;;;;;;;20.50;8.20;;;;;;;23.55;98.96;100494.58;357861;82;21129;-39
2021/04/04 11:20:22;;;;;;;25.05;8.08;;;;;;;23.50;99.80;100501.67;353658;82;21128;-44
2021/04/04 11:21:04;;;;;;;20.82;8.18;;;;;;;23.46;100.00;100494.13;354247;82;21096;-41
2021/04/04 11:21:42;;;;;;;18.95;8.20;;;;;;;23.42;100.00;100496.53;353539;82;21145;-40
2021/04/04 11:22:19;;;;;;;16.65;8.30;;;;;;;23.36;100.00;100490.63;359679;81;21671;-40
2021/04/04 11:22:54;;;;;;;17.25;8.13;;;;;;;23.33;100.00;100488.36;358829;82;21121;-40
2021/04/04 11:23:26;;;;;;;16.67;7.28;;;;;;;23.29;100.00;100485.80;357602;82;21076;-39
2021/04/04 11:24:01;;;;;;;19.30;7.70;;;;;;;23.24;100.00;100490.66;359711;81;21077;-42
2021/04/04 11:24:37;;;;;;;18.12;7.95;;;;;;;23.22;100.00;100493.38;359594;80;21066;-41
2021/04/04 11:25:15;;;;;;;19.07;7.80;;;;;;;23.17;100.00;100487.20;359067;82;21576;-40
2021/04/04 11:25:45;;;;;;;16.85;7.75;;;;;;;23.15;100.00;100492.68;359250;82;21381;-40
2021/04/04 11:26:33;;;;;;;16.62;7.60;;;;;;;23.10;100.00;100484.57;359165;81;21172;-40
2021/04/04 11:27:09;;;;;;;15.75;7.30;;;;;;;23.07;100.00;100489.22;359067;82;21133;-40
2021/04/04 11:27:44;;;;;;;14.43;6.85;;;;;;;23.02;100.00;100483.56;356266;82;21435;-41
2021/04/04 11:28:18;;;;;;;13.08;6.70;;;;;;;23.00;100.00;100492.62;358731;80;21091;-41
2021/04/04 11:29:10;;;;;;;15.85;7.12;;;;;;;22.97;100.00;100487.58;358649;82;21616;-40
2021/04/04 11:29:45;;;;;;;14.47;6.47;;;;;;;22.94;100.00;100492.20;335470;84;69774;-39
2021/04/04 11:30:37;;;;;;;16.65;7.22;;;;;;;22.90;100.00;100490.46;343144;85;21197;-39
2021/04/04 11:31:10;;;;;;;12.82;6.15;;;;;;;22.86;100.00;100486.52;343109;84;21164;-39
2021/04/04 11:31:47;;;;;;;14.83;7.10;;;;;;;22.82;100.00;100488.61;337329;86;21200;-39
2021/04/04 11:32:22;;;;;;;13.40;6.12;;;;;;;22.79;100.00;100491.84;335388;87;21119;-40
2021/04/04 11:33:19;;;;;;;16.57;7.47;;;;;;;22.76;100.00;100490.42;337834;87;21574;-40
2021/04/04 11:33:51;;;;;;;14.45;6.83;;;;;;;22.73;100.00;100493.13;344071;84;21335;-40
2021/04/04 11:34:40;;;;;;;15.58;6.80;;;;;;;22.69;100.00;100492.47;347149;84;21164;-40
2021/04/04 11:35:14;;;;;;;14.40;6.55;;;;;;;22.66;100.00;100487.42;346270;83;21124;-39
2021/04/04 11:36:11;;;;;;;12.23;6.62;;;;;;;22.62;100.00;100493.95;345953;84;21104;-39
2021/04/04 11:36:44;;;;;;;20.52;7.20;;;;;;;22.60;100.00;100488.41;346909;85;21272;-39
2021/04/04 11:37:24;;;;;;;16.42;6.45;;;;;;;22.56;100.00;100494.93;346810;84;21313;-40
2021/04/04 11:37:56;;;;;;;11.70;6.65;;;;;;;22.53;100.00;100490.72;344380;84;21132;-40
2021/04/04 11:38:30;;;;;;;15.30;6.97;;;;;;;22.51;100.00;100493.43;338441;87;21320;-39
2021/04/04 11:39:08;;;;;;;13.90;6.95;;;;;;;22.50;100.00;100491.73;336150;87;21197;-40
2021/04/04 11:39:41;;;;;;;16.10;6.67;;;;;;;22.47;100.00;100496.34;338209;87;21131;-40
2021/04/04 11:40:25;;;;;;;15.35;6.55;;;;;;;22.46;100.00;100495.51;328358;88;21180;-39
2021/04/04 11:41:21;;;;;;;12.60;6.40;;;;;;;22.44;100.00;100496.30;329272;87;21178;-40
2021/04/04 11:41:56;;;;;;;14.40;6.15;;;;;;;22.42;100.00;100491.56;330432;86;21179;-40
2021/04/04 11:42:29;;;;;;;16.20;6.30;;;;;;;22.40;100.00;100492.34;337338;85;21160;-40
2021/04/04 11:43:27;;;;;;;14.53;6.37;;;;;;;22.39;100.00;100492.03;339740;86;21178;-44
2021/04/04 11:44:24;;;;;;;16.30;5.62;;;;;;;22.36;100.00;100500.25;338168;86;21127;-44
2021/04/04 11:44:57;;;;;;;10.10;5.17;;;;;;;22.35;100.00;100497.73;338886;86;21220;-44
2021/04/04 11:45:36;;;;;;;9.20;5.50;;;;;;;22.32;100.00;100496.27;338326;86;21170;-45
2021/04/04 11:46:51;;;;;;;12.30;5.60;;;;;;;22.31;100.00;100493.75;337443;86;21110;-44
2021/04/04 11:47:23;;;;;;;10.40;5.70;;;;;;;22.28;100.00;100497.00;339383;86;21119;-43
2021/04/04 11:47:56;;;;;;;9.38;5.33;;;;;;;22.22;100.00;100495.98;339266;86;21155;-43
2021/04/04 11:48:34;;;;;;;13.15;5.78;;;;;;;22.19;100.00;100497.30;339375;86;21186;-43
2021/04/04 11:49:32;;;;;;;9.18;5.03;;;;;;;22.17;100.00;100493.12;340138;86;22203;-43
2021/04/04 11:50:23;;;;;;;9.38;5.17;;;;;;;22.15;100.00;100491.98;336315;87;21149;-44
2021/04/04 11:51:11;;;;;;;9.15;5.15;;;;;;;22.12;100.00;100499.33;332361;86;21287;-43
2021/04/04 11:51:44;;;;;;;9.00;4.95;;;;;;;22.09;100.00;100497.04;335726;86;21132;-41
2021/04/04 11:52:21;;;;;;;8.85;5.10;;;;;;;22.07;100.00;100499.20;338471;86;21163;-42
2021/04/04 11:52:55;;;;;;;10.05;4.67;;;;;;;22.07;100.00;100501.13;338335;86;21570;-42
2021/04/04 11:53:48;;;;;;;10.50;5.15;;;;;;;22.06;100.00;100496.67;337580;86;21209;-43
2021/04/04 11:54:50;;;;;;;12.37;5.10;;;;;;;22.05;100.00;100495.02;337842;86;21633;-43
2021/04/04 11:55:22;;;;;;;11.85;5.25;;;;;;;22.04;100.00;100502.96;326667;84;183504;-43
2021/04/04 11:55:55;;;;;;;11.85;5.03;;;;;;;22.03;100.00;100491.12;340246;85;21162;-43
2021/04/04 11:56:48;;;;;;;13.60;6.17;;;;;;;22.04;100.00;100494.70;342413;85;21169;-42
2021/04/04 11:57:36;;;;;;;11.90;5.00;;;;;;;22.03;100.00;100495.25;330572;87;21129;-45
2021/04/04 11:58:08;;;;;;;13.43;5.60;;;;;;;22.03;100.00;100495.25;333763;87;21550;-43
2021/04/04 11:58:41;;;;;;;16.62;6.22;;;;;;;22.02;100.00;100490.80;336728;86;21162;-44
2021/04/04 11:59:14;;;;;;;10.50;5.20;;;;;;;22.03;100.00;100493.01;338156;86;171936;-43
2021/04/04 12:00:01;;;;;;;13.03;5.72;;;;;;;22.03;100.00;100497.14;346088;84;21133;-45
2021/04/04 12:00:36;;;;;;;12.45;5.40;;;;;;;22.03;100.00;100495.77;346873;83;21277;-41
2021/04/04 12:01:08;;;;;;;11.53;5.10;;;;;;;22.03;100.00;100499.38;357347;81;21133;-41
2021/04/04 12:01:43;;;;;;;11.30;5.08;;;;;;;22.02;100.00;100492.18;352138;82;21165;-44
2021/04/04 12:02:17;;;;;;;9.93;4.70;;;;;;;22.02;100.00;100497.69;354103;82;21183;-45
2021/04/04 12:02:59;;;;;;;10.23;4.53;;;;;;;22.03;100.00;100495.25;354102;82;21294;-43
2021/04/04 12:03:31;;;;;;;10.95;5.12;;;;;;;22.03;100.00;100495.77;350683;83;21226;-41
2021/04/04 12:04:29;;;;;;;9.33;4.53;;;;;;;22.04;100.00;100496.08;348096;84;21146;-42
2021/04/04 12:05:12;;;;;;;12.82;4.90;;;;;;;22.04;100.00;100491.95;350052;84;21607;-42
2021/04/04 12:05:44;;;;;;;7.22;4.08;;;;;;;22.05;100.00;100490.89;343664;84;21121;-41
2021/04/04 12:06:17;;;;;;;8.08;4.25;;;;;;;22.04;100.00;100489.20;352871;83;21211;-41
2021/04/04 12:07:11;;;;;;;12.70;5.05;;;;;;;22.03;100.00;100488.88;360459;81;21127;-44
2021/04/04 12:07:54;;;;;;;10.65;4.30;;;;;;;22.04;100.00;100491.95;329039;83;62449;-45
2021/04/04 12:08:28;;;;;;;9.48;4.70;;;;;;;22.02;100.00;100492.18;338333;85;21133;-45
2021/04/04 12:09:01;;;;;;;11.40;4.67;;;;;;;22.01;100.00;100485.02;338474;86;21168;-43
2021/04/04 12:09:34;;;;;;;9.63;4.45;;;;;;;21.99;100.00;100483.88;336126;86;21212;-42
2021/04/04 12:10:10;;;;;;;11.97;4.47;;;;;;;22.00;100.00;100489.66;335535;87;21511;-39
2021/04/04 12:10:42;;;;;;;11.12;4.47;;;;;;;22.01;100.00;100490.52;335939;86;21144;-41
2021/04/04 12:11:16;;;;;;;12.53;4.42;;;;;;;22.00;100.00;100488.83;338863;86;21169;-41
2021/04/04 12:11:49;;;;;;;11.57;4.60;;;;;;;21.99;100.00;100485.24;334595;87;21136;-39
2021/04/04 12:12:21;;;;;;;13.65;4.60;;;;;;;21.99;100.00;100490.75;334381;87;21145;-38
2021/04/04 12:12:53;;;;;;;6.78;4.12;;;;;;;21.98;100.00;100490.44;332908;87;21191;-38
2021/04/04 12:13:26;;;;;;;8.18;3.92;;;;;;;21.98;98.91;100484.93;329620;88;21210;-38
2021/04/04 12:14:01;;;;;;;7.20;4.10;;;;;;;21.96;92.60;100485.70;340704;85;21143;-39
2021/04/04 12:14:55;;;;;;;9.43;4.40;;;;;;;21.94;89.82;100487.03;344207;85;21122;-38
2021/04/04 12:15:29;;;;;;;7.62;3.95;;;;;;;21.90;91.35;100490.80;344436;85;21199;-38
2021/04/04 12:16:02;;;;;;;5.80;3.60;;;;;;;21.86;94.33;100487.36;340345;85;21157;-38
2021/04/04 12:16:48;;;;;;;11.33;4.33;;;;;;;21.84;95.85;100486.76;334865;88;21243;-39
2021/04/04 12:17:26;;;;;;;6.65;3.42;;;;;;;21.82;97.12;100494.41;336319;88;21140;-39
2021/04/04 12:17:59;;;;;;;9.48;3.90;;;;;;;21.79;98.42;100486.91;335532;87;21687;-38
2021/04/04 12:18:32;;;;;;;6.92;3.72;;;;;;;21.78;99.03;100492.67;343656;85;21227;-38
2021/04/04 12:19:05;;;;;;;6.37;3.77;;;;;;;21.78;99.46;100488.55;342385;85;21145;-39
2021/04/04 12:19:37;;;;;;;7.53;3.67;;;;;;;21.78;99.66;100489.92;343496;85;21147;-39
2021/04/04 12:20:10;;;;;;;7.53;4.10;;;;;;;21.77;99.67;100484.09;341795;85;21133;-39
2021/04/04 12:20:43;;;;;;;14.35;4.15;;;;;;;21.77;99.66;100488.23;343639;85;21160;-39
2021/04/04 12:21:15;;;;;;;6.53;3.42;;;;;;;21.76;99.61;100480.52;343204;85;21171;-39
2021/04/04 12:21:55;;;;;;;8.03;4.10;;;;;;;21.77;99.50;100480.80;344904;85;21187;-39
2021/04/04 12:22:42;;;;;;;8.65;3.72;;;;;;;21.77;99.42;100483.55;336542;87;21160;-39
2021/04/04 12:23:15;;;;;;;8.15;3.70;;;;;;;21.77;99.39;100483.55;339668;85;21134;-40
2021/04/04 12:23:54;;;;;;;5.08;3.37;;;;;;;21.78;99.28;100488.55;340770;86;21150;-40
2021/04/04 12:24:42;;;;;;;5.58;3.80;;;;;;;21.78;99.17;100483.03;338965;85;21126;-40
2021/04/04 12:25:21;;;;;;;6.65;3.37;;;;;;;21.79;99.05;100480.56;332859;85;21158;-40
2021/04/04 12:25:53;;;;;;;3.50;3.10;;;;;;;21.78;98.89;100485.24;343045;85;21632;-39
2021/04/04 12:26:25;;;;;;;5.17;3.35;;;;;;;21.80;98.79;100485.02;335832;87;21148;-39
2021/04/04 12:27:00;;;;;;;5.58;3.50;;;;;;;21.79;98.78;100480.56;342595;85;21127;-40
2021/04/04 12:27:32;;;;;;;5.80;3.50;;;;;;;21.79;98.82;100480.02;344295;85;21231;-39
2021/04/04 12:28:05;;;;;;;9.63;3.80;;;;;;;21.80;98.78;100483.09;337265;85;21178;-41
2021/04/04 12:28:37;;;;;;;5.08;3.67;;;;;;;21.80;98.80;100474.84;340164;85;21535;-40
2021/04/04 12:29:10;;;;;;;6.83;3.50;;;;;;;21.82;98.84;100480.66;345601;85;21120;-38
2021/04/04 12:29:47;;;;;;;7.42;3.90;;;;;;;21.81;98.84;100471.53;338428;86;21217;-39
2021/04/04 12:30:37;;;;;;;6.90;3.52;;;;;;;21.82;98.78;100477.91;343529;85;21702;-38
2021/04/04 12:31:11;;;;;;;7.75;3.42;;;;;;;21.82;98.73;100474.60;340332;86;21178;-40
2021/04/04 12:31:43;;;;;;;6.00;3.35;;;;;;;21.85;98.37;100480.16;339155;86;21144;-38
2021/04/04 12:32:30;;;;;;;8.48;3.37;;;;;;;21.83;98.21;100476.81;342978;85;21200;-40
2021/04/04 12:33:17;;;;;;;5.95;3.60;;;;;;;21.85;98.03;100477.41;340434;86;21624;-40
2021/04/04 12:33:50;;;;;;;5.80;3.37;;;;;;;21.85;97.87;100482.40;340969;85;21153;-40
2021/04/04 12:34:22;;;;;;;6.78;3.37;;;;;;;21.87;97.83;100481.63;331155;88;21138;-41
2021/04/04 12:35:00;;;;;;;5.92;3.55;;;;;;;21.84;97.80;100472.45;333003;87;21246;-40
2021/04/04 12:35:35;;;;;;;6.10;3.58;;;;;;;21.85;97.59;100481.02;334555;88;21217;-40
2021/04/04 12:36:07;;;;;;;7.58;3.50;;;;;;;21.86;97.68;100475.80;333626;87;21166;-40
2021/04/04 12:36:46;;;;;;;6.90;3.42;;;;;;;21.86;97.74;100477.17;340280;86;21201;-40
2021/04/04 12:37:20;;;;;;;8.53;3.92;;;;;;;21.87;97.72;100480.25;341896;86;21162;-40
2021/04/04 12:37:54;;;;;;;6.55;3.67;;;;;;;21.87;97.67;100471.98;344555;85;21167;-40
2021/04/04 12:38:28;;;;;;;5.28;3.45;;;;;;;21.87;97.64;100471.98;342331;85;21262;-41
2021/04/04 12:39:01;;;;;;;7.67;3.50;;;;;;;21.87;97.47;100468.38;344997;85;21124;-40
2021/04/04 12:39:36;;;;;;;6.55;3.70;;;;;;;21.87;97.32;100470.61;344661;85;21177;-40
2021/04/04 12:40:10;;;;;;;6.15;3.58;;;;;;;21.88;97.17;100471.44;341295;85;21242;-40
2021/04/04 12:40:42;;;;;;;6.55;3.70;;;;;;;21.89;97.00;100471.75;344534;85;21731;-40
2021/04/04 12:41:15;;;;;;;8.98;3.60;;;;;;;21.88;96.83;100469.52;342550;85;21202;-40
2021/04/04 12:41:47;;;;;;;5.80;3.70;;;;;;;21.89;96.58;100472.59;343456;85;21225;-40
2021/04/04 12:42:27;;;;;;;6.58;3.70;;;;;;;21.90;96.35;100472.04;341464;85;21309;-40
2021/04/04 12:43:02;;;;;;;8.80;4.15;;;;;;;21.90;96.13;100470.66;338989;85;21262;-40
2021/04/04 12:43:41;;;;;;;5.33;3.40;;;;;;;21.90;95.91;100470.66;341857;85;21118;-41
2021/04/04 12:44:34;;;;;;;5.40;3.50;;;;;;;21.91;95.85;100469.60;342222;85;21189;-39
2021/04/04 12:45:13;;;;;;;5.28;3.45;;;;;;;21.91;95.72;100466.30;340453;86;21691;-41
2021/04/04 12:45:45;;;;;;;5.00;3.25;;;;;;;21.91;95.54;100464.92;340088;86;21169;-40
2021/04/04 12:46:17;;;;;;;6.42;3.60;;;;;;;21.91;95.49;100464.09;344442;85;21159;-40
2021/04/04 12:46:50;;;;;;;5.58;3.25;;;;;;;21.91;95.39;100463.55;336934;86;21129;-40
2021/04/04 12:47:26;;;;;;;6.25;3.50;;;;;;;21.90;95.25;100459.66;339412;86;21193;-39
2021/04/04 12:48:00;;;;;;;7.40;3.40;;;;;;;21.91;95.08;100458.59;339552;86;21318;-39
2021/04/04 12:48:37;;;;;;;6.85;3.60;;;;;;;21.92;94.85;100458.88;340609;86;21139;-40
2021/04/04 12:49:11;;;;;;;5.85;3.40;;;;;;;21.91;94.63;100456.67;344322;85;21125;-40
2021/04/04 12:49:54;;;;;;;3.50;3.12;;;;;;;21.90;94.43;100457.77;336803;87;21147;-39
2021/04/04 12:50:27;;;;;;;5.83;3.20;;;;;;;21.91;94.28;100458.05;336871;87;21185;-40
2021/04/04 12:51:02;;;;;;;5.58;3.50;;;;;;;21.92;94.24;100456.12;339414;87;21234;-40
2021/04/04 12:51:34;;;;;;;6.53;3.50;;;;;;;21.91;94.28;100448.95;341398;85;21186;-39
2021/04/04 12:52:08;;;;;;;6.37;3.40;;;;;;;21.92;94.35;100457.50;339180;86;21177;-40
2021/04/04 12:52:48;;;;;;;7.53;3.30;;;;;;;21.91;94.45;100455.84;340311;87;21224;-41
2021/04/04 12:53:25;;;;;;;4.70;3.33;;;;;;;21.92;94.50;100451.99;339928;87;21630;-41
2021/04/04 12:53:58;;;;;;;9.83;4.20;;;;;;;21.91;94.21;100452.53;342895;85;21149;-41
2021/04/04 12:54:30;;;;;;;6.30;3.85;;;;;;;21.92;94.02;100453.37;342477;85;21290;-41
2021/04/04 12:55:15;;;;;;;6.42;4.00;;;;;;;21.92;93.81;100454.74;341704;85;21120;-41
2021/04/04 12:55:47;;;;;;;6.03;3.50;;;;;;;21.90;93.54;100456.38;342238;85;21108;-40
2021/04/04 12:56:40;;;;;;;5.40;3.55;;;;;;;21.91;93.22;100453.91;341596;85;21127;-41
2021/04/04 12:57:17;;;;;;;6.67;3.47;;;;;;;21.92;93.08;100454.74;345908;85;21173;-43
2021/04/04 12:58:09;;;;;;;6.37;3.50;;;;;;;21.91;92.88;100454.46;336654;87;21550;-41
2021/04/04 12:58:44;;;;;;;6.03;3.70;;;;;;;21.91;92.77;100457.21;331886;88;21583;-41
2021/04/04 12:59:20;;;;;;;5.90;3.40;;;;;;;21.90;92.57;100456.90;333791;88;21141;-43
2021/04/04 12:59:53;;;;;;;6.17;3.70;;;;;;;21.89;92.49;100457.45;338381;86;21152;-41
2021/04/04 13:00:34;;;;;;;6.28;3.50;;;;;;;21.89;92.44;100456.62;336940;87;21307;-41
2021/04/04 13:01:14;;;;;;;5.30;3.52;;;;;;;21.88;92.37;100459.88;338936;85;21634;-39
2021/04/04 13:01:47;;;;;;;5.92;3.60;;;;;;;21.88;92.43;100459.88;341302;86;21163;-40
2021/04/04 13:02:20;;;;;;;4.65;3.22;;;;;;;21.88;92.59;100457.67;339626;86;21165;-39
2021/04/04 13:03:00;;;;;;;6.55;3.37;;;;;;;21.87;92.74;100456.84;339554;86;21124;-40
2021/04/04 13:03:33;;;;;;;4.95;3.30;;;;;;;21.87;92.74;100459.59;340496;85;21153;-39
2021/04/04 13:04:14;;;;;;;5.70;3.25;;;;;;;21.87;92.67;100460.12;340014;86;21214;-40
2021/04/04 13:04:46;;;;;;;;;;;;;;;21.86;92.52;100455.70;339711;86;21566;-40
2021/04/04 13:05:18;;;;;;;5.03;3.15;;;;;;;21.86;92.33;100457.08;341705;86;20152;-39
2021/04/04 13:05:52;;;;;;;6.15;3.40;;;;;;;21.87;92.24;100458.73;340925;85;21211;-39
2021/04/04 13:06:24;;;;;;;6.80;3.33;;;;;;;21.84;92.22;100453.18;340237;85;21080;-40
2021/04/04 13:06:57;;;;;;;5.28;3.50;;;;;;;21.85;92.37;100452.63;341890;86;21588;-40
2021/04/04 13:07:30;;;;;;;4.42;3.10;;;;;;;21.83;92.56;100453.41;335290;87;21189;-39
2021/04/04 13:08:19;;;;;;;5.15;2.98;;;;;;;21.84;92.86;100453.18;335401;85;21260;-39
2021/04/04 13:08:51;;;;;;;5.25;3.20;;;;;;;21.85;93.20;100454.02;337702;87;21197;-39
2021/04/04 13:09:23;;;;;;;3.77;3.35;;;;;;;21.83;93.70;100445.98;337873;87;21333;-39
2021/04/04 13:09:56;;;;;;;5.08;3.42;;;;;;;21.83;94.10;100450.66;339759;85;21120;-40
2021/04/04 13:10:30;;;;;;;4.92;3.20;;;;;;;21.83;94.52;100453.41;337579;87;21509;-39
2021/04/04 13:11:07;;;;;;;5.58;3.17;;;;;;;21.83;94.75;100447.91;337870;87;21193;-39
2021/04/04 13:11:40;;;;;;;6.50;3.20;;;;;;;21.83;94.76;100446.53;337953;87;21161;-41
2021/04/04 13:12:13;;;;;;;4.58;2.95;;;;;;;21.83;94.57;100451.48;339821;87;21074;-44
2021/04/04 13:12:45;;;;;;;7.00;3.10;;;;;;;21.83;94.53;100445.98;341769;85;21272;-44
2021/04/04 13:13:30;;;;;;;5.12;3.42;;;;;;;21.83;94.49;100452.87;343639;85;21131;-44
2021/04/04 13:14:03;;;;;;;4.53;2.95;;;;;;;21.82;94.15;100441.58;341977;85;21204;-43
2021/04/04 13:14:36;;;;;;;6.22;3.47;;;;;;;21.82;93.78;100445.70;343194;85;21205;-43
2021/04/04 13:15:11;;;;;;;5.40;3.08;;;;;;;21.83;93.63;100446.53;336940;87;21145;-43
2021/04/04 13:15:44;;;;;;;6.72;3.70;;;;;;;21.83;93.76;100449.28;338539;87;21310;-42